Bellevue, Iowa
Current Conditions -  °F | °C
As of 1:53 AM on Sunday 26 Oct 2014 (Local Time) from KDBQ Reporting Station
Clear Clear  
Wind Chill: 40°   Ceiling: Unl
Heat Index: 44°   Visibility: 10mi
Dew Point: 31°   Wind: 7mph
Humidity: 60%   Direction: 330°NNW
Pressure: 30.05"   Gusts: NA
Location:  42.26°N, 90.42°W
Report Text: KDBQ 260653Z AUTO 33006KT 10SM CLR 07/M01 A3005 RMK AO2 SLP177 T00671006
Loading
Personal Weather Stations






























Interactive Weather Map
Tropical Storm Tracking
New forecast layout! Learn more

10-Day Weather Forecast

Advertisements
Track Severe Weather on mobile